createdAt,value
2018-12-05T00:01:06.789Z,102220.28
2018-12-05T00:03:35.049Z,102211.50
2018-12-05T00:06:03.234Z,102207.56
2018-12-05T00:08:31.360Z,102208.54
2018-12-05T00:10:59.537Z,102212.53
2018-12-05T00:13:27.817Z,102208.26
2018-12-05T00:15:55.992Z,102204.98
2018-12-05T00:18:24.208Z,102207.79
2018-12-05T00:20:52.349Z,102200.95
2018-12-05T00:23:20.514Z,102199.24
2018-12-05T00:25:48.680Z,102209.87
2018-12-05T00:28:16.864Z,102211.82
2018-12-05T00:30:45.242Z,102213.30
2018-12-05T00:33:13.422Z,102215.92
2018-12-05T00:35:41.713Z,102215.47
2018-12-05T00:38:09.975Z,102216.78
2018-12-05T00:40:38.879Z,102219.97
2018-12-05T00:43:07.196Z,102219.57
2018-12-05T00:45:35.312Z,102216.13
2018-12-05T00:48:03.796Z,102210.34
2018-12-05T00:50:32.082Z,102212.05
2018-12-05T00:53:00.910Z,102205.49
2018-12-05T00:55:29.929Z,102205.89
2018-12-05T00:57:58.117Z,102211.53
2018-12-05T01:00:26.321Z,102218.20
2018-12-05T01:02:54.468Z,102209.17
2018-12-05T01:05:22.745Z,102205.24
2018-12-05T01:07:51.133Z,102206.55
2018-12-05T01:10:20.541Z,102209.58
2018-12-05T01:12:48.761Z,102209.94
2018-12-05T01:15:17.072Z,102209.03
2018-12-05T01:17:45.249Z,102205.09
2018-12-05T01:20:13.645Z,102209.83
2018-12-05T01:22:41.822Z,102204.58
2018-12-05T01:25:09.705Z,102200.65
2018-12-05T01:27:37.351Z,102200.25
2018-12-05T01:30:05.602Z,102196.37
2018-12-05T01:32:33.817Z,102202.08
2018-12-05T01:35:02.056Z,102199.45
2018-12-05T01:37:30.225Z,102193.75
2018-12-05T01:39:58.393Z,102194.21
2018-12-05T01:42:26.645Z,102187.34
2018-12-05T01:44:56.958Z,102187.58
2018-12-05T01:47:25.350Z,102186.55
2018-12-05T01:49:53.569Z,102181.05
2018-12-05T01:52:21.845Z,102181.73
2018-12-05T01:54:50.022Z,102180.98
2018-12-05T01:57:18.187Z,102183.81
2018-12-05T01:59:46.448Z,102192.75
2018-12-05T02:02:14.676Z,102189.84
2018-12-05T02:04:42.909Z,102190.48
2018-12-05T02:07:11.077Z,102188.38
2018-12-05T02:09:39.535Z,102195.22
2018-12-05T02:12:13.507Z,102181.66
2018-12-05T02:14:42.349Z,102176.99
2018-12-05T02:17:10.533Z,102175.23
2018-12-05T02:19:38.701Z,102186.21
2018-12-05T02:22:07.313Z,102188.94
2018-12-05T02:24:35.677Z,102197.14
2018-12-05T02:27:03.943Z,102197.55
2018-12-05T02:29:37.564Z,102195.67
2018-12-05T02:32:05.845Z,102185.20
2018-12-05T02:34:34.084Z,102181.72
2018-12-05T02:37:02.341Z,102178.56
2018-12-05T02:39:30.559Z,102169.79
2018-12-05T02:41:58.813Z,102175.94
2018-12-05T02:44:26.997Z,102163.23
2018-12-05T02:46:55.282Z,102164.95
2018-12-05T02:49:23.632Z,102167.57
2018-12-05T02:51:51.834Z,102163.08
2018-12-05T02:54:20.089Z,102158.69
2018-12-05T02:56:48.273Z,102150.89
2018-12-05T02:59:16.521Z,102155.67
2018-12-05T03:01:44.730Z,102164.78
2018-12-05T03:04:13.709Z,102160.00
2018-12-05T03:06:41.920Z,102167.17
2018-12-05T03:09:10.157Z,102157.29
2018-12-05T03:11:38.359Z,102158.25
2018-12-05T03:14:06.609Z,102148.69
2018-12-05T03:16:34.797Z,102157.40
2018-12-05T03:19:03.019Z,102160.53
2018-12-05T03:21:31.318Z,102151.81
2018-12-05T03:23:59.464Z,102148.85
2018-12-05T03:26:27.673Z,102150.22
2018-12-05T03:28:55.907Z,102152.03
2018-12-05T03:31:24.195Z,102158.13
2018-12-05T03:33:52.436Z,102153.43
2018-12-05T03:36:20.681Z,102149.55
2018-12-05T03:38:48.952Z,102154.50
2018-12-05T03:41:17.182Z,102153.25
2018-12-05T03:43:45.471Z,102154.11
2018-12-05T03:46:13.719Z,102151.89
2018-12-05T03:48:42.065Z,102151.38
2018-12-05T03:51:10.231Z,102151.43
2018-12-05T03:53:38.510Z,102148.03
2018-12-05T03:56:06.790Z,102145.58
2018-12-05T03:58:35.096Z,102146.57
2018-12-05T04:01:03.332Z,102146.68
2018-12-05T04:03:31.514Z,102144.27
2018-12-05T04:05:59.690Z,102145.63
2018-12-05T04:08:27.858Z,102145.37
2018-12-05T04:10:56.045Z,102140.19
2018-12-05T04:13:24.273Z,102132.79
2018-12-05T04:15:52.589Z,102132.84
2018-12-05T04:18:20.766Z,102127.72
2018-12-05T04:20:48.962Z,102127.72
2018-12-05T04:23:17.198Z,102126.35
2018-12-05T04:25:45.458Z,102131.13
2018-12-05T04:28:13.701Z,102136.77
2018-12-05T04:30:41.968Z,102141.50
2018-12-05T04:33:10.169Z,102144.88
2018-12-05T04:35:38.289Z,102154.34
2018-12-05T04:38:06.466Z,102155.25
2018-12-05T04:40:34.743Z,102160.99
2018-12-05T04:43:02.918Z,102151.27
2018-12-05T04:45:31.345Z,102149.00
2018-12-05T04:47:59.493Z,102154.69
2018-12-05T04:50:27.652Z,102161.29
2018-12-05T04:52:56.002Z,102154.45
2018-12-05T04:55:24.182Z,102165.05
2018-12-05T04:57:53.266Z,102158.67
2018-12-05T05:00:21.573Z,102160.23
2018-12-05T05:02:49.856Z,102158.71
2018-12-05T05:05:19.022Z,102157.16
2018-12-05T05:07:47.222Z,102152.53
2018-12-05T05:10:16.575Z,102153.52
2018-12-05T05:12:45.393Z,102155.68
2018-12-05T05:15:13.671Z,102151.12
2018-12-05T05:17:41.945Z,102140.90
2018-12-05T05:20:11.952Z,102133.86
2018-12-05T05:22:40.318Z,102136.06
2018-12-05T05:25:08.580Z,102131.80
2018-12-05T05:27:37.972Z,102132.59
2018-12-05T05:30:06.728Z,102126.67
2018-12-05T05:32:34.965Z,102126.16
2018-12-05T05:35:03.370Z,102127.66
2018-12-05T05:37:31.560Z,102129.66
2018-12-05T05:39:59.789Z,102120.82
2018-12-05T05:42:27.977Z,102119.75
2018-12-05T05:44:56.137Z,102114.75
2018-12-05T05:47:24.461Z,102116.21
2018-12-05T05:49:52.624Z,102110.90
2018-12-05T05:52:20.875Z,102115.12
2018-12-05T05:54:49.042Z,102108.83
2018-12-05T05:57:17.265Z,102103.08
2018-12-05T05:59:45.547Z,102099.89
2018-12-05T06:02:13.896Z,102098.52
2018-12-05T06:04:42.037Z,102100.63
2018-12-05T06:07:10.224Z,102105.41
2018-12-05T06:09:38.365Z,102097.50
2018-12-05T06:12:06.862Z,102096.53
2018-12-05T06:14:35.045Z,102113.36
2018-12-05T06:17:03.469Z,102113.36
2018-12-05T06:19:31.706Z,102106.35
2018-12-05T06:22:00.913Z,102100.14
2018-12-05T06:24:30.846Z,102103.50
2018-12-05T06:26:59.225Z,102102.53
2018-12-05T06:29:27.416Z,102095.44
2018-12-05T06:31:55.698Z,102096.63
2018-12-05T06:34:24.006Z,102100.91
2018-12-05T06:36:52.237Z,102107.85
2018-12-05T06:39:21.395Z,102112.18
2018-12-05T06:41:49.673Z,102118.67
2018-12-05T06:44:17.845Z,102111.73
2018-12-05T06:46:46.154Z,102108.19
